createdAt,value
2022-12-23T00:00:23.223Z,12.90
2022-12-23T00:03:11.760Z,15.40
2022-12-23T00:05:40.696Z,16.40
2022-12-23T00:08:08.661Z,16.90
2022-12-23T00:10:41.409Z,15.70
2022-12-23T00:13:30.410Z,16.30
2022-12-23T00:16:16.491Z,16.50
2022-12-23T00:18:44.371Z,14.10
2022-12-23T00:21:17.104Z,13.30
2022-12-23T00:23:49.048Z,14.50
2022-12-23T00:26:24.961Z,16.90
2022-12-23T00:28:55.997Z,13.80
2022-12-23T00:31:24.667Z,13.90
2022-12-23T00:33:54.251Z,14.00
2022-12-23T00:36:30.449Z,13.00
2022-12-23T00:39:18.861Z,11.00
2022-12-23T00:42:05.470Z,13.30
2022-12-23T00:44:33.207Z,15.40
2022-12-23T00:47:00.974Z,13.00
2022-12-23T00:49:44.182Z,13.00
2022-12-23T00:52:15.837Z,13.00
2022-12-23T00:54:43.713Z,14.10
2022-12-23T00:57:11.611Z,11.20
2022-12-23T00:59:39.347Z,11.60
2022-12-23T01:02:29.691Z,11.50
2022-12-23T01:05:16.304Z,10.00
2022-12-23T01:07:43.899Z,10.20
2022-12-23T01:10:11.708Z,11.10
2022-12-23T01:12:39.409Z,10.70
2022-12-23T01:15:07.846Z,10.70
2022-12-23T01:17:35.635Z,13.10
2022-12-23T01:20:03.800Z,11.50
2022-12-23T01:22:31.466Z,10.60
2022-12-23T01:24:59.202Z,10.90
2022-12-23T01:27:26.921Z,9.60
2022-12-23T01:29:54.736Z,9.90
2022-12-23T01:32:22.659Z,11.70
2022-12-23T01:34:50.321Z,13.40
2022-12-23T01:37:17.938Z,14.00
2022-12-23T01:39:45.642Z,12.30
2022-12-23T01:42:38.730Z,14.20
2022-12-23T01:45:18.593Z,12.70
2022-12-23T01:47:55.015Z,12.70
2022-12-23T01:50:56.136Z,13.40
2022-12-23T01:53:38.575Z,14.40
2022-12-23T01:56:19.799Z,14.70
2022-12-23T01:58:54.131Z,16.30
2022-12-23T02:01:41.023Z,14.90
2022-12-23T02:04:15.905Z,13.20
2022-12-23T02:07:04.802Z,13.20
2022-12-23T02:09:38.929Z,15.20
2022-12-23T02:12:18.734Z,14.20
2022-12-23T02:15:47.507Z,13.70
2022-12-23T02:18:46.119Z,12.20
2022-12-23T02:21:29.883Z,13.00
2022-12-23T02:24:03.596Z,11.60
2022-12-23T02:27:00.145Z,12.00
2022-12-23T02:30:25.060Z,11.50
2022-12-23T02:33:22.504Z,12.20
2022-12-23T02:36:15.924Z,11.80
2022-12-23T02:39:10.290Z,13.20
2022-12-23T02:41:50.248Z,13.20
2022-12-23T02:44:33.543Z,11.90
2022-12-23T02:47:28.243Z,11.00
2022-12-23T02:50:02.246Z,11.40
2022-12-23T02:52:36.349Z,15.30
2022-12-23T02:55:12.324Z,13.30
2022-12-23T02:57:48.904Z,13.40
2022-12-23T03:00:18.668Z,12.70
2022-12-23T03:02:47.216Z,12.60
2022-12-23T03:05:46.240Z,12.50
2022-12-23T03:08:25.976Z,9.10
2022-12-23T03:11:08.768Z,9.70
2022-12-23T03:14:10.344Z,13.50
2022-12-23T03:17:12.150Z,13.50
2022-12-23T03:20:14.667Z,15.20
2022-12-23T03:23:06.037Z,12.80
2022-12-23T03:25:50.008Z,12.30
2022-12-23T03:28:30.579Z,12.30
2022-12-23T03:31:02.316Z,11.00
2022-12-23T03:33:37.101Z,14.80
2022-12-23T03:36:15.585Z,15.10
2022-12-23T03:38:45.965Z,15.50
2022-12-23T03:41:21.696Z,16.00
2022-12-23T03:44:04.514Z,12.80
2022-12-23T03:46:59.140Z,12.90
2022-12-23T03:49:39.042Z,11.40
2022-12-23T03:52:21.138Z,13.40
2022-12-23T03:54:54.770Z,15.30
2022-12-23T03:57:28.619Z,15.10
2022-12-23T03:59:56.642Z,14.20
2022-12-23T04:02:47.396Z,15.00
2022-12-23T04:05:33.905Z,13.50
2022-12-23T04:08:22.835Z,13.00
2022-12-23T04:10:51.474Z,16.00
2022-12-23T04:13:19.194Z,15.80
2022-12-23T04:15:47.414Z,14.20
2022-12-23T04:18:16.580Z,12.60
2022-12-23T04:20:44.554Z,15.30
2022-12-23T04:23:12.223Z,13.70
2022-12-23T04:25:39.875Z,13.10
2022-12-23T04:28:07.640Z,13.40
2022-12-23T04:30:35.302Z,16.10
2022-12-23T04:33:03.688Z,15.90
2022-12-23T04:35:31.457Z,16.40
2022-12-23T04:37:59.166Z,14.40
2022-12-23T04:40:26.812Z,11.10
2022-12-23T04:42:54.437Z,15.40
2022-12-23T04:45:22.373Z,15.80
2022-12-23T04:47:50.085Z,15.10
2022-12-23T04:50:18.083Z,15.90
2022-12-23T04:52:45.795Z,15.50
2022-12-23T04:55:14.052Z,13.60
2022-12-23T04:57:41.822Z,15.80
2022-12-23T05:00:10.521Z,14.20
2022-12-23T05:02:38.437Z,14.30
2022-12-23T05:05:06.546Z,15.20
2022-12-23T05:07:34.350Z,16.40
2022-12-23T05:10:02.445Z,15.00
2022-12-23T05:12:31.733Z,15.30
2022-12-23T05:14:59.453Z,15.30
2022-12-23T05:17:27.132Z,14.00
2022-12-23T05:19:54.872Z,14.30
2022-12-23T05:22:22.633Z,13.70
2022-12-23T05:24:50.422Z,16.00
2022-12-23T05:27:18.223Z,15.20
2022-12-23T05:29:45.865Z,14.70
2022-12-23T05:32:13.533Z,12.00
2022-12-23T05:34:41.244Z,11.80
2022-12-23T05:37:08.851Z,12.40
2022-12-23T05:39:36.713Z,9.10
2022-12-23T05:42:05.283Z,10.90
2022-12-23T05:44:33.033Z,15.70
2022-12-23T05:47:01.060Z,15.00
2022-12-23T05:49:28.748Z,13.20
2022-12-23T05:51:56.367Z,10.70
2022-12-23T05:54:24.179Z,10.50
2022-12-23T05:56:51.837Z,9.90
2022-12-23T05:59:19.791Z,13.80
2022-12-23T06:01:47.548Z,15.10
2022-12-23T06:04:15.562Z,16.00
2022-12-23T06:06:43.239Z,15.50
2022-12-23T06:09:10.926Z,15.10
2022-12-23T06:11:38.610Z,12.70
2022-12-23T06:14:07.504Z,13.20
2022-12-23T06:16:35.340Z,11.30
2022-12-23T06:19:03.530Z,15.30
2022-12-23T06:21:31.951Z,15.30
2022-12-23T06:23:59.818Z,12.50
2022-12-23T06:26:27.464Z,14.20
2022-12-23T06:28:55.128Z,14.80
2022-12-23T06:31:22.936Z,13.10
2022-12-23T06:33:50.636Z,14.80
2022-12-23T06:36:19.342Z,14.70
2022-12-23T06:38:46.979Z,14.80
2022-12-23T06:41:14.819Z,17.20
2022-12-23T06:43:42.482Z,16.30
2022-12-23T06:46:10.191Z,17.30
2022-12-23T06:48:37.954Z,15.90
2022-12-23T06:51:05.885Z,15.70
2022-12-23T06:53:33.543Z,16.30
2022-12-23T06:56:03.703Z,16.60
2022-12-23T06:58:31.776Z,15.00
2022-12-23T07:00:59.674Z,17.80
2022-12-23T07:03:27.587Z,18.30
2022-12-23T07:05:55.353Z,16.50
2022-12-23T07:08:23.323Z,14.20
2022-12-23T07:10:59.629Z,15.30
2022-12-23T07:13:27.831Z,14.90
2022-12-23T07:15:55.892Z,15.60
2022-12-23T07:18:25.272Z,17.20
2022-12-23T07:20:52.954Z,15.60
2022-12-23T07:23:20.704Z,13.30
2022-12-23T07:25:48.343Z,14.70
2022-12-23T07:28:16.058Z,17.00
2022-12-23T07:30:43.754Z,18.70
2022-12-23T07:33:11.443Z,14.50
2022-12-23T07:35:39.343Z,14.50
2022-12-23T07:38:07.066Z,16.40
2022-12-23T07:40:35.459Z,14.80
2022-12-23T07:43:03.435Z,15.20
2022-12-23T07:45:31.214Z,16.80
2022-12-23T07:48:01.006Z,13.70
2022-12-23T07:50:28.789Z,22.40
2022-12-23T07:52:56.674Z,20.40
2022-12-23T07:55:24.505Z,26.60
2022-12-23T07:57:53.129Z,16.50
2022-12-23T08:00:22.154Z,17.10
2022-12-23T08:02:50.107Z,12.10
2022-12-23T08:05:18.999Z,12.10
2022-12-23T08:07:49.373Z,12.60
2022-12-23T08:10:17.498Z,11.50
2022-12-23T08:12:46.520Z,12.30
2022-12-23T08:15:14.499Z,11.40
2022-12-23T08:17:42.981Z,11.20
2022-12-23T08:20:11.401Z,10.50
2022-12-23T08:22:39.217Z,11.10
2022-12-23T08:25:07.399Z,8.90
2022-12-23T08:27:35.938Z,10.40
2022-12-23T08:30:04.241Z,10.60
2022-12-23T08:32:32.011Z,9.20
2022-12-23T08:34:59.735Z,8.50
2022-12-23T08:37:27.480Z,7.90
2022-12-23T08:39:55.227Z,9.20
2022-12-23T08:42:22.925Z,6.90
2022-12-23T08:44:50.597Z,8.70
2022-12-23T08:47:18.382Z,9.40
2022-12-23T08:49:47.628Z,9.30
2022-12-23T08:52:15.543Z,8.30
2022-12-23T08:54:43.227Z,8.10
2022-12-23T08:57:11.046Z,8.30
2022-12-23T08:59:38.897Z,8.30
2022-12-23T09:02:07.037Z,9.50
2022-12-23T09:04:36.730Z,9.50
2022-12-23T09:07:04.477Z,11.30
2022-12-23T09:09:32.199Z,11.90
2022-12-23T09:11:59.925Z,12.00
2022-12-23T09:14:27.690Z,10.30
2022-12-23T09:16:55.376Z,9.40
2022-12-23T09:19:23.087Z,9.00
2022-12-23T09:21:50.920Z,9.90
2022-12-23T09:24:18.617Z,9.90
2022-12-23T09:26:46.342Z,6.60
2022-12-23T09:29:14.017Z,6.50
2022-12-23T09:31:41.785Z,6.90
2022-12-23T09:34:11.429Z,6.40
2022-12-23T09:36:39.205Z,6.40
2022-12-23T09:39:06.898Z,7.50
2022-12-23T09:42:12.387Z,9.20
2022-12-23T09:45:40.675Z,7.40
2022-12-23T09:48:19.212Z,8.10
2022-12-23T09:50:47.576Z,8.00
2022-12-23T09:53:22.752Z,7.60
2022-12-23T09:56:02.300Z,8.60
2022-12-23T09:58:58.035Z,6.70
2022-12-23T10:01:55.022Z,7.50
2022-12-23T10:04:23.104Z,9.50
2022-12-23T10:07:05.031Z,10.50
2022-12-23T10:09:38.768Z,9.00
2022-12-23T10:12:28.877Z,8.00
2022-12-23T10:15:03.090Z,8.10
2022-12-23T10:17:41.622Z,6.60
2022-12-23T10:20:20.994Z,8.10
2022-12-23T10:22:48.857Z,5.90
2022-12-23T10:25:39.504Z,8.60
2022-12-23T10:28:11.044Z,7.70
2022-12-23T10:31:17.285Z,7.60
2022-12-23T10:33:56.426Z,7.70
2022-12-23T10:36:43.944Z,7.30
2022-12-23T10:39:25.239Z,6.70
2022-12-23T10:42:05.263Z,6.20
2022-12-23T10:44:59.364Z,6.00
2022-12-23T10:48:15.693Z,7.50
2022-12-23T10:51:00.115Z,6.20
2022-12-23T10:53:40.340Z,9.20
2022-12-23T10:56:09.767Z,7.20
2022-12-23T10:58:46.541Z,6.10
2022-12-23T11:01:26.203Z,6.80
2022-12-23T11:04:15.481Z,12.00
2022-12-23T11:07:10.724Z,6.90
2022-12-23T11:10:02.515Z,8.30
2022-12-23T11:12:42.989Z,7.20
2022-12-23T11:15:40.164Z,6.50
2022-12-23T11:18:12.261Z,7.00
2022-12-23T11:20:44.093Z,7.70
2022-12-23T11:23:29.231Z,7.40
2022-12-23T11:26:20.687Z,9.30
2022-12-23T11:29:02.985Z,8.50
2022-12-23T11:31:35.279Z,8.00
2022-12-23T11:34:15.424Z,6.50
2022-12-23T11:36:43.914Z,6.90
2022-12-23T11:39:37.017Z,8.30
2022-12-23T11:42:15.568Z,14.80
2022-12-23T11:44:51.820Z,9.60
2022-12-23T11:47:23.124Z,8.80
2022-12-23T11:50:01.377Z,7.60
2022-12-23T11:52:33.869Z,6.10
2022-12-23T11:55:05.766Z,6.90
2022-12-23T11:57:48.364Z,7.90
2022-12-23T12:00:23.371Z,21.70
2022-12-23T12:02:59.910Z,11.20
2022-12-23T12:05:41.130Z,12.80
2022-12-23T12:08:18.893Z,10.20
2022-12-23T12:10:46.851Z,10.80
2022-12-23T12:13:32.455Z,10.70
2022-12-23T12:16:54.636Z,15.10
2022-12-23T12:19:31.866Z,22.00
2022-12-23T12:22:10.152Z,17.30
2022-12-23T12:24:53.535Z,21.30
2022-12-23T12:27:35.725Z,16.10
2022-12-23T12:30:11.943Z,18.00
2022-12-23T12:32:58.999Z,17.40
2022-12-23T12:35:55.952Z,23.30
2022-12-23T12:38:32.677Z,13.80
2022-12-23T12:41:22.099Z,13.20
2022-12-23T12:44:15.655Z,9.90
2022-12-23T12:47:52.792Z,10.70
2022-12-23T12:50:25.180Z,9.70
2022-12-23T12:52:59.296Z,11.90
2022-12-23T12:55:33.426Z,10.80
2022-12-23T12:58:04.970Z,12.20
2022-12-23T13:00:54.511Z,11.00
2022-12-23T13:03:53.808Z,10.30
2022-12-23T13:06:35.478Z,8.70
2022-12-23T13:09:24.417Z,9.30
2022-12-23T13:12:37.902Z,10.40
2022-12-23T13:15:44.245Z,10.20
2022-12-23T13:18:20.784Z,10.50
2022-12-23T13:21:05.555Z,8.70
2022-12-23T13:24:37.910Z,8.50
2022-12-23T13:27:20.207Z,10.70
2022-12-23T13:30:08.650Z,9.40
2022-12-23T13:33:00.829Z,8.40
2022-12-23T13:35:47.977Z,9.00
2022-12-23T13:38:55.911Z,8.90
2022-12-23T13:41:40.760Z,8.10
2022-12-23T13:44:13.204Z,7.60
2022-12-23T13:46:57.302Z,8.60
2022-12-23T13:49:38.277Z,11.10
2022-12-23T13:52:14.898Z,9.40
2022-12-23T13:54:54.847Z,9.00
2022-12-23T13:57:56.186Z,9.20
2022-12-23T14:00:31.952Z,13.70
2022-12-23T14:03:02.683Z,14.30
2022-12-23T14:05:45.242Z,9.30
2022-12-23T14:08:19.054Z,12.50
2022-12-23T14:11:24.387Z,12.70
2022-12-23T14:13:52.083Z,10.70
2022-12-23T14:16:50.019Z,9.20
2022-12-23T14:19:42.528Z,10.10
2022-12-23T14:22:40.908Z,11.30
2022-12-23T14:25:28.527Z,13.60
2022-12-23T14:27:58.803Z,12.00
2022-12-23T14:30:36.803Z,11.10
2022-12-23T14:33:22.079Z,11.30
2022-12-23T14:35:58.241Z,11.00
2022-12-23T14:38:29.705Z,10.40
2022-12-23T14:41:23.002Z,11.50
2022-12-23T14:43:56.273Z,9.20
2022-12-23T14:46:36.974Z,13.50
2022-12-23T14:49:39.933Z,13.30
2022-12-23T14:52:58.569Z,16.30
2022-12-23T14:55:31.558Z,16.60
2022-12-23T14:58:20.185Z,16.50
2022-12-23T15:01:13.040Z,15.10
2022-12-23T15:03:47.265Z,11.70
2022-12-23T15:06:44.201Z,12.70
2022-12-23T15:09:34.767Z,14.30
2022-12-23T15:12:13.613Z,13.10
2022-12-23T15:14:53.226Z,12.40
2022-12-23T15:17:38.182Z,13.50
2022-12-23T15:20:20.675Z,13.80
2022-12-23T15:22:50.293Z,13.10
2022-12-23T15:25:58.121Z,15.60
2022-12-23T15:28:39.609Z,14.20
2022-12-23T15:31:38.619Z,11.80
2022-12-23T15:34:17.573Z,10.70
2022-12-23T15:36:46.996Z,10.60
2022-12-23T15:39:32.360Z,9.20
2022-12-23T15:42:01.277Z,10.90
2022-12-23T15:44:39.537Z,10.50
2022-12-23T15:47:31.942Z,10.90
2022-12-23T15:50:02.056Z,10.60
2022-12-23T15:52:32.673Z,11.80
2022-12-23T15:55:21.544Z,10.80
2022-12-23T15:57:51.592Z,14.10
2022-12-23T16:00:47.320Z,15.30
2022-12-23T16:03:44.070Z,17.70
2022-12-23T16:06:33.213Z,17.30
2022-12-23T16:09:22.304Z,16.50
2022-12-23T16:12:02.159Z,16.70
2022-12-23T16:14:32.698Z,15.60
2022-12-23T16:17:09.185Z,14.80
2022-12-23T16:19:54.886Z,15.80
2022-12-23T16:22:26.334Z,18.60
2022-12-23T16:25:00.110Z,20.80
2022-12-23T16:27:46.172Z,20.00
2022-12-23T16:30:28.206Z,16.90
2022-12-23T16:33:02.271Z,15.40
2022-12-23T16:35:43.610Z,14.70
2022-12-23T16:38:25.725Z,14.20
2022-12-23T16:40:56.434Z,13.20
2022-12-23T16:43:25.245Z,12.00
2022-12-23T16:45:57.173Z,12.80
2022-12-23T16:48:40.100Z,13.70
2022-12-23T16:51:14.829Z,15.50
2022-12-23T16:53:42.623Z,15.20
2022-12-23T16:56:14.296Z,15.80
2022-12-23T16:58:42.532Z,17.30
2022-12-23T17:01:36.335Z,15.60
2022-12-23T17:04:06.621Z,13.30
2022-12-23T17:06:35.929Z,12.50
2022-12-23T17:09:05.736Z,13.50
2022-12-23T17:11:41.229Z,15.30
2022-12-23T17:14:25.720Z,17.20
2022-12-23T17:16:53.660Z,20.90
2022-12-23T17:19:28.052Z,23.30
2022-12-23T17:22:02.554Z,24.70
2022-12-23T17:24:30.292Z,22.80
2022-12-23T17:26:58.526Z,23.30
2022-12-23T17:29:26.369Z,26.80
2022-12-23T17:31:54.545Z,25.30
2022-12-23T17:34:24.624Z,26.50
2022-12-23T17:36:53.035Z,30.20
2022-12-23T17:39:22.346Z,26.30
2022-12-23T17:41:51.054Z,26.90
2022-12-23T17:44:19.041Z,26.10
2022-12-23T17:46:47.277Z,23.00
2022-12-23T17:49:15.171Z,22.00
2022-12-23T17:51:43.642Z,23.10
2022-12-23T17:54:24.662Z,22.60
2022-12-23T17:56:53.257Z,21.70
2022-12-23T17:59:21.866Z,22.10
2022-12-23T18:01:50.301Z,18.40
2022-12-23T18:04:18.171Z,18.00
2022-12-23T18:06:45.871Z,18.50
2022-12-23T18:09:13.711Z,19.20
2022-12-23T18:11:46.821Z,19.80
2022-12-23T18:14:21.957Z,17.50
2022-12-23T18:16:49.779Z,16.70
2022-12-23T18:19:21.208Z,16.50
2022-12-23T18:21:50.122Z,15.60
2022-12-23T18:24:18.559Z,14.80
2022-12-23T18:26:47.739Z,14.70
2022-12-23T18:29:15.521Z,14.60
2022-12-23T18:31:51.548Z,14.30
2022-12-23T18:34:20.818Z,12.70
2022-12-23T18:36:51.724Z,14.00
2022-12-23T18:39:20.345Z,14.40
2022-12-23T18:41:48.665Z,16.00
2022-12-23T18:44:21.020Z,16.60
2022-12-23T18:46:50.179Z,19.10
2022-12-23T18:49:18.519Z,22.00
2022-12-23T18:51:46.246Z,24.40
2022-12-23T18:54:15.974Z,22.00
2022-12-23T18:56:45.034Z,22.30
2022-12-23T18:59:22.801Z,20.40
2022-12-23T19:01:57.704Z,20.90
2022-12-23T19:04:27.686Z,15.40
2022-12-23T19:06:57.208Z,16.50
2022-12-23T19:09:25.154Z,18.10
2022-12-23T19:11:54.554Z,18.20
2022-12-23T19:14:22.516Z,17.50
2022-12-23T19:16:52.314Z,18.00
2022-12-23T19:19:21.864Z,18.10
2022-12-23T19:21:49.794Z,19.80
2022-12-23T19:24:18.012Z,18.60
2022-12-23T19:26:45.738Z,18.10
2022-12-23T19:29:13.503Z,19.20
2022-12-23T19:31:41.548Z,16.40
2022-12-23T19:34:14.624Z,15.20
2022-12-23T19:36:44.280Z,16.40
2022-12-23T19:39:16.869Z,16.80
2022-12-23T19:41:45.387Z,18.30
2022-12-23T19:44:14.030Z,18.60
2022-12-23T19:46:41.997Z,19.40
2022-12-23T19:49:19.333Z,19.30
2022-12-23T19:51:48.917Z,17.50
2022-12-23T19:54:18.615Z,17.70
2022-12-23T19:56:46.316Z,18.00
2022-12-23T19:59:14.473Z,17.40
2022-12-23T20:01:42.497Z,17.80
2022-12-23T20:04:10.964Z,17.40
2022-12-23T20:06:40.895Z,16.80
2022-12-23T20:09:12.787Z,17.30
2022-12-23T20:11:46.703Z,20.10
2022-12-23T20:14:18.522Z,23.10
2022-12-23T20:16:48.360Z,25.00
2022-12-23T20:19:17.675Z,23.00
2022-12-23T20:21:45.872Z,19.80
2022-12-23T20:24:15.917Z,21.90
2022-12-23T20:26:44.065Z,21.30
2022-12-23T20:29:12.070Z,22.90
2022-12-23T20:31:40.407Z,20.20
2022-12-23T20:34:15.497Z,19.20
2022-12-23T20:36:44.477Z,18.40
2022-12-23T20:39:12.290Z,16.10
2022-12-23T20:41:40.068Z,16.40
2022-12-23T20:46:55.467Z,17.20
2022-12-23T20:49:23.289Z,15.70
2022-12-23T20:51:50.893Z,14.70
2022-12-23T20:54:18.601Z,16.80
2022-12-23T20:56:46.237Z,18.60
2022-12-23T20:59:13.902Z,20.90
2022-12-23T21:01:42.152Z,17.40
2022-12-23T21:04:16.029Z,15.60
2022-12-23T21:06:45.452Z,18.80
2022-12-23T21:09:15.647Z,18.40
2022-12-23T21:11:46.720Z,18.70
2022-12-23T21:14:16.092Z,18.90
2022-12-23T21:16:44.450Z,19.20
2022-12-23T21:19:19.730Z,19.80
2022-12-23T21:21:49.245Z,19.00
2022-12-23T21:24:18.531Z,19.80
2022-12-23T21:26:55.730Z,17.00
2022-12-23T21:29:24.616Z,17.30
2022-12-23T21:31:52.557Z,21.00
2022-12-23T21:34:20.383Z,20.90
2022-12-23T21:36:48.209Z,23.60
2022-12-23T21:39:16.532Z,19.80
2022-12-23T21:41:44.435Z,19.10
2022-12-23T21:44:16.109Z,21.10
2022-12-23T21:46:43.855Z,20.80
2022-12-23T21:49:12.012Z,17.60
2022-12-23T21:51:41.762Z,18.40
2022-12-23T21:54:11.678Z,17.40
2022-12-23T21:56:41.071Z,12.80
2022-12-23T21:59:13.681Z,20.90
2022-12-23T22:01:43.443Z,20.20
2022-12-23T22:04:11.674Z,18.90
2022-12-23T22:06:43.848Z,18.40
2022-12-23T22:09:17.620Z,18.90
2022-12-23T22:11:46.881Z,17.30
2022-12-23T22:14:17.861Z,18.30
2022-12-23T22:16:45.703Z,17.80
2022-12-23T22:19:13.859Z,15.80
2022-12-23T22:21:42.611Z,15.00
2022-12-23T22:24:11.128Z,14.80
2022-12-23T22:26:40.824Z,17.60
2022-12-23T22:29:10.875Z,14.90
2022-12-23T22:31:53.059Z,15.80
2022-12-23T22:34:23.236Z,15.40
2022-12-23T22:36:51.079Z,15.70
2022-12-23T22:39:21.834Z,15.50
2022-12-23T22:41:51.296Z,14.60
2022-12-23T22:44:20.233Z,16.80
2022-12-23T22:46:48.526Z,15.90
2022-12-23T22:49:17.583Z,14.20
2022-12-23T22:51:45.404Z,14.20
2022-12-23T22:54:14.290Z,14.50
2022-12-23T22:56:42.525Z,14.10
2022-12-23T22:59:21.054Z,14.20
2022-12-23T23:01:51.567Z,16.20
2022-12-23T23:04:19.739Z,15.20
2022-12-23T23:06:47.480Z,14.20
2022-12-23T23:09:19.189Z,15.30
2022-12-23T23:11:47.005Z,16.30
2022-12-23T23:14:15.697Z,13.50
2022-12-23T23:16:43.477Z,14.40
2022-12-23T23:19:12.186Z,14.40
2022-12-23T23:21:40.367Z,14.90
2022-12-23T23:24:08.597Z,15.40
2022-12-23T23:26:36.289Z,14.80
2022-12-23T23:29:04.343Z,13.90
2022-12-23T23:31:41.916Z,13.30
2022-12-23T23:34:11.788Z,14.40
2022-12-23T23:36:40.100Z,13.40
2022-12-23T23:39:08.573Z,15.00
2022-12-23T23:41:36.315Z,13.00
2022-12-23T23:44:04.778Z,14.10
2022-12-23T23:46:33.762Z,13.60
2022-12-23T23:49:01.767Z,13.80
2022-12-23T23:51:29.791Z,13.30
2022-12-23T23:53:57.568Z,13.30
2022-12-23T23:56:27.284Z,14.00
2022-12-23T23:58:56.555Z,14.00
